createdAt,value
2023-01-11T00:02:22.293Z,100779.47
2023-01-11T00:04:50.527Z,100776.38
2023-01-11T00:07:18.537Z,100782.19
2023-01-11T00:09:47.873Z,100761.13
2023-01-11T00:12:15.789Z,100757.69
2023-01-11T00:14:43.759Z,100780.53
2023-01-11T00:17:12.864Z,100778.94
2023-01-11T00:19:40.736Z,100777.38
2023-01-11T00:22:09.131Z,100770.41
2023-01-11T00:24:36.879Z,100767.84
2023-01-11T00:27:04.817Z,100749.41
2023-01-11T00:29:32.780Z,100762.13
2023-01-11T00:32:00.513Z,100757.72
2023-01-11T00:34:29.744Z,100751.63
2023-01-11T00:36:57.602Z,100756.00
2023-01-11T00:39:25.442Z,100763.06
2023-01-11T00:42:10.792Z,100756.75
2023-01-11T00:44:55.907Z,100746.56
2023-01-11T00:47:41.579Z,100749.25
2023-01-11T00:50:11.977Z,100744.91
2023-01-11T00:52:39.680Z,100734.47
2023-01-11T00:55:08.715Z,100727.91
2023-01-11T00:57:36.531Z,100738.97
2023-01-11T01:00:05.182Z,100737.09
2023-01-11T01:02:33.172Z,100725.94
2023-01-11T01:05:00.937Z,100728.63
2023-01-11T01:07:30.167Z,100728.66
2023-01-11T01:09:58.103Z,100714.31
2023-01-11T01:12:39.798Z,100726.13
2023-01-11T01:15:08.615Z,100719.47
2023-01-11T01:17:36.392Z,100722.22
2023-01-11T01:20:04.677Z,100704.50
2023-01-11T01:22:33.957Z,100716.34
2023-01-11T01:25:01.725Z,100702.13
2023-01-11T01:27:29.550Z,100717.38
2023-01-11T01:29:57.646Z,100719.84
2023-01-11T01:32:25.342Z,100714.84
2023-01-11T01:34:53.146Z,100702.94
2023-01-11T01:37:21.158Z,100711.22
2023-01-11T01:39:50.369Z,100701.78
2023-01-11T01:42:20.399Z,100702.47
2023-01-11T01:45:00.330Z,100695.94
2023-01-11T01:47:33.694Z,100703.50
2023-01-11T01:50:06.076Z,100704.25
2023-01-11T01:52:35.061Z,100689.09
2023-01-11T01:55:08.872Z,100707.59
2023-01-11T01:57:40.762Z,100699.13
2023-01-11T02:00:10.905Z,100699.09
2023-01-11T02:02:41.037Z,100671.22
2023-01-11T02:05:10.672Z,100658.66
2023-01-11T02:07:43.527Z,100680.72
2023-01-11T02:10:16.283Z,100667.44
2023-01-11T02:12:49.522Z,100666.03
2023-01-11T02:15:19.170Z,100664.91
2023-01-11T02:17:46.989Z,100648.22
2023-01-11T02:20:47.230Z,100660.03
2023-01-11T02:23:53.477Z,100657.31
2023-01-11T02:26:55.642Z,100660.69
2023-01-11T02:29:34.310Z,100652.03
2023-01-11T02:32:15.260Z,100650.22
2023-01-11T02:34:48.691Z,100642.38
2023-01-11T02:37:29.012Z,100641.41
2023-01-11T02:40:07.221Z,100635.50
2023-01-11T02:43:03.147Z,100631.88
2023-01-11T02:45:43.259Z,100617.53
2023-01-11T02:48:20.465Z,100605.75
2023-01-11T02:50:53.617Z,100600.59
2023-01-11T02:53:28.955Z,100616.56
2023-01-11T02:55:59.912Z,100613.16
2023-01-11T02:58:30.989Z,100601.06
2023-01-11T03:01:01.605Z,100600.31
2023-01-11T03:03:29.629Z,100592.41
2023-01-11T03:06:01.521Z,100589.94
2023-01-11T03:08:44.791Z,100577.19
2023-01-11T03:11:37.122Z,100571.22
2023-01-11T03:14:14.419Z,100567.84
2023-01-11T03:16:50.824Z,100564.28
2023-01-11T03:19:32.208Z,100561.50
2023-01-11T03:22:08.906Z,100552.81
2023-01-11T03:24:44.205Z,100547.91
2023-01-11T03:27:23.097Z,100533.56
2023-01-11T03:30:00.712Z,100523.19
2023-01-11T03:32:38.012Z,100536.53
2023-01-11T03:35:14.297Z,100507.63
2023-01-11T03:37:48.768Z,100515.41
2023-01-11T03:40:22.052Z,100514.66
2023-01-11T03:43:14.866Z,100506.00
2023-01-11T03:45:47.939Z,100499.78
2023-01-11T03:48:22.925Z,100493.03
2023-01-11T03:50:53.629Z,100497.28
2023-01-11T03:53:24.992Z,100498.16
2023-01-11T03:55:56.753Z,100486.22
2023-01-11T03:58:26.305Z,100488.00
2023-01-11T04:00:55.866Z,100481.97
2023-01-11T04:03:27.169Z,100471.91
2023-01-11T04:05:59.794Z,100478.03
2023-01-11T04:08:28.297Z,100468.31
2023-01-11T04:10:56.853Z,100464.91
2023-01-11T04:13:24.873Z,100457.13
2023-01-11T04:15:53.969Z,100448.66
2023-01-11T04:18:21.765Z,100446.94
2023-01-11T04:20:51.237Z,100440.16
2023-01-11T04:23:19.020Z,100438.41
2023-01-11T04:25:47.599Z,100439.34
2023-01-11T04:28:15.633Z,100431.44
2023-01-11T04:30:43.410Z,100427.31
2023-01-11T04:33:13.299Z,100415.41
2023-01-11T04:35:41.458Z,100412.81
2023-01-11T04:38:10.562Z,100412.09
2023-01-11T04:40:38.626Z,100406.97
2023-01-11T04:43:05.637Z,100401.09
2023-01-11T04:45:34.139Z,100388.88
2023-01-11T04:48:01.955Z,100378.56
2023-01-11T04:50:29.962Z,100374.38
2023-01-11T04:52:59.459Z,100363.25
2023-01-11T04:55:28.696Z,100359.03
2023-01-11T04:57:56.542Z,100354.78
2023-01-11T05:00:25.503Z,100348.78
2023-01-11T05:02:53.292Z,100335.25
2023-01-11T05:05:21.146Z,100313.09
2023-01-11T05:07:49.943Z,100318.28
2023-01-11T05:10:20.783Z,100318.06
2023-01-11T05:12:50.436Z,100313.03
2023-01-11T05:15:18.239Z,100301.94
2023-01-11T05:17:45.995Z,100301.94
2023-01-11T05:20:14.509Z,100298.38
2023-01-11T05:22:42.408Z,100282.47
2023-01-11T05:25:10.688Z,100291.31
2023-01-11T05:27:38.719Z,100287.19
2023-01-11T05:30:09.859Z,100285.31
2023-01-11T05:32:37.701Z,100285.22
2023-01-11T05:35:06.133Z,100267.22
2023-01-11T05:37:33.853Z,100269.75
2023-01-11T05:40:01.793Z,100251.03
2023-01-11T05:42:29.603Z,100257.41
2023-01-11T05:45:14.723Z,100238.63
2023-01-11T05:47:44.046Z,100239.34
2023-01-11T05:50:12.147Z,100240.09
2023-01-11T05:52:39.871Z,100241.66
2023-01-11T05:55:09.157Z,100235.03
2023-01-11T05:57:36.991Z,100220.75
2023-01-11T06:00:05.246Z,100228.25
2023-01-11T06:02:33.317Z,100229.09
2023-01-11T06:05:02.524Z,100217.06
2023-01-11T06:07:30.411Z,100204.22
2023-01-11T06:09:58.397Z,100209.28
2023-01-11T06:12:26.221Z,100184.75
2023-01-11T06:14:53.987Z,100192.19
2023-01-11T06:17:22.043Z,100166.09
2023-01-11T06:19:49.785Z,100176.06
2023-01-11T06:22:18.891Z,100154.06
2023-01-11T06:24:46.867Z,100155.66
2023-01-11T06:27:14.603Z,100146.25
2023-01-11T06:29:42.433Z,100136.28
2023-01-11T06:32:10.607Z,100141.13
2023-01-11T06:34:38.349Z,100139.47
2023-01-11T06:37:06.143Z,100133.31
2023-01-11T06:39:35.458Z,100101.31
2023-01-11T06:42:03.178Z,100117.19
2023-01-11T06:44:30.898Z,100105.00
2023-01-11T06:46:59.038Z,100107.69
2023-01-11T06:49:27.150Z,100113.22
2023-01-11T06:51:54.927Z,100093.84
2023-01-11T06:54:25.754Z,100097.75
2023-01-11T06:56:54.945Z,100093.56
2023-01-11T06:59:22.649Z,100087.41
2023-01-11T07:01:51.165Z,100071.38
2023-01-11T07:04:19.871Z,100071.88
2023-01-11T07:06:47.582Z,100070.00
2023-01-11T07:09:15.435Z,100064.91
2023-01-11T07:11:43.335Z,100060.56
2023-01-11T07:14:15.145Z,100046.28
2023-01-11T07:16:43.063Z,100034.63
2023-01-11T07:19:10.881Z,100026.03
2023-01-11T07:21:38.747Z,100038.28
2023-01-11T07:24:07.054Z,100030.84
2023-01-11T07:26:41.080Z,100007.84
2023-01-11T07:29:09.118Z,100025.19
2023-01-11T07:31:38.618Z,99995.66
2023-01-11T07:34:06.398Z,100022.94
2023-01-11T07:36:39.478Z,100005.78
2023-01-11T07:39:07.552Z,100007.63
2023-01-11T07:41:52.700Z,100008.72
2023-01-11T07:44:20.634Z,99991.34
2023-01-11T07:46:49.899Z,99985.38
2023-01-11T07:49:17.875Z,99998.31
2023-01-11T07:51:45.746Z,99995.06
2023-01-11T07:54:13.465Z,99970.59
2023-01-11T07:56:41.246Z,99971.16
2023-01-11T07:59:10.051Z,99951.00
2023-01-11T08:01:37.995Z,99962.50
2023-01-11T08:04:08.635Z,99955.75
2023-01-11T08:06:36.508Z,99952.88
2023-01-11T08:09:04.462Z,99958.41
2023-01-11T08:11:49.584Z,99954.22
2023-01-11T08:14:35.179Z,99956.19
2023-01-11T08:17:03.441Z,99941.78
2023-01-11T08:19:32.621Z,99932.47
2023-01-11T08:22:00.342Z,99930.66
2023-01-11T08:24:28.140Z,99919.97
2023-01-11T08:26:56.247Z,99924.09
2023-01-11T08:29:24.171Z,99934.34
2023-01-11T08:31:52.230Z,99929.22
2023-01-11T08:34:20.224Z,99905.69
2023-01-11T08:36:49.317Z,99913.97
2023-01-11T08:39:17.202Z,99920.06
2023-01-11T08:41:45.790Z,99911.34
2023-01-11T08:44:14.982Z,99916.69
2023-01-11T08:46:43.184Z,99905.53
2023-01-11T08:49:12.353Z,99886.75
2023-01-11T08:51:40.417Z,99904.78
2023-01-11T08:54:13.291Z,99897.13
2023-01-11T08:56:41.332Z,99867.72
2023-01-11T08:59:11.209Z,99881.97
2023-01-11T09:01:39.092Z,99855.59
2023-01-11T09:04:23.132Z,99870.97
2023-01-11T09:06:51.596Z,99839.75
2023-01-11T09:09:20.891Z,99847.72
2023-01-11T09:11:58.968Z,99854.63
2023-01-11T09:14:28.759Z,99846.88
2023-01-11T09:16:57.471Z,99846.25
2023-01-11T09:19:25.627Z,99854.50
2023-01-11T09:21:56.783Z,99850.19
2023-01-11T09:24:25.893Z,99846.66
2023-01-11T09:26:53.876Z,99845.69
2023-01-11T09:29:21.856Z,99838.94
2023-01-11T09:31:49.664Z,99842.53
2023-01-11T09:34:17.903Z,99811.31
2023-01-11T09:36:48.670Z,99825.22
2023-01-11T09:39:18.901Z,99819.13
2023-01-11T09:42:16.465Z,99814.13
2023-01-11T09:44:51.431Z,99830.25
2023-01-11T09:47:31.631Z,99823.34
2023-01-11T09:50:03.765Z,99819.13
2023-01-11T09:52:39.557Z,99793.19
2023-01-11T09:55:12.543Z,99795.38
2023-01-11T09:57:54.308Z,99808.66
2023-01-11T10:00:29.251Z,99801.00
2023-01-11T10:03:17.188Z,99784.28
2023-01-11T10:05:59.657Z,99781.31
2023-01-11T10:18:22.037Z,99778.53
2023-01-11T10:18:28.164Z,99786.16
2023-01-11T10:20:46.626Z,99787.88
2023-01-11T10:23:21.643Z,99780.06
2023-01-11T10:25:51.785Z,99767.31
2023-01-11T10:28:27.122Z,99767.84
2023-01-11T10:31:11.303Z,99768.78
2023-01-11T10:34:06.100Z,99778.19
2023-01-11T10:36:55.491Z,99774.56
2023-01-11T10:39:50.703Z,99772.63
2023-01-11T10:42:22.596Z,99763.88
2023-01-11T10:45:00.197Z,99779.91
2023-01-11T10:47:34.642Z,99760.41
2023-01-11T10:50:14.664Z,99760.13
2023-01-11T10:52:48.069Z,99736.13
2023-01-11T10:55:21.763Z,99741.59
2023-01-11T10:58:03.422Z,99762.09
2023-01-11T11:00:40.422Z,99754.34
2023-01-11T11:03:24.354Z,99746.66
2023-01-11T11:06:01.837Z,99742.25
2023-01-11T11:08:38.755Z,99751.53
2023-01-11T11:11:12.901Z,99752.16
2023-01-11T11:13:51.254Z,99740.34
2023-01-11T11:16:36.998Z,99742.84
2023-01-11T11:19:06.227Z,99733.44
2023-01-11T11:21:38.525Z,99748.47
2023-01-11T11:24:09.411Z,99717.56
2023-01-11T11:26:41.736Z,99737.16
2023-01-11T11:29:11.895Z,99728.66
2023-01-11T11:31:47.260Z,99725.47
2023-01-11T11:34:18.633Z,99737.22
2023-01-11T11:36:49.034Z,99739.16
2023-01-11T11:39:20.445Z,99746.75
2023-01-11T11:41:50.315Z,99725.22
2023-01-11T11:44:20.964Z,99736.31
2023-01-11T11:46:59.116Z,99720.03
2023-01-11T11:49:29.124Z,99728.78
2023-01-11T11:51:59.192Z,99719.38
2023-01-11T11:54:30.762Z,99716.50
2023-01-11T11:57:00.041Z,99698.03
2023-01-11T11:59:32.872Z,99701.78
2023-01-11T12:02:04.356Z,99710.91
2023-01-11T12:04:42.814Z,99703.22
2023-01-11T12:07:16.043Z,99681.09
2023-01-11T12:09:48.263Z,99706.47
2023-01-11T12:12:18.900Z,99707.31
2023-01-11T12:15:09.891Z,99711.59
2023-01-11T12:17:38.280Z,99683.47
2023-01-11T12:20:29.334Z,99692.47
2023-01-11T12:23:18.246Z,99694.38
2023-01-11T12:26:22.965Z,99672.56
2023-01-11T12:29:29.587Z,99694.25
2023-01-11T12:32:21.375Z,99710.16
2023-01-11T12:35:02.712Z,99698.06
2023-01-11T12:37:52.959Z,99670.47
2023-01-11T12:40:31.681Z,99698.25
2023-01-11T12:43:21.325Z,99706.94
2023-01-11T12:45:54.585Z,99685.78
2023-01-11T12:48:50.325Z,99692.28
2023-01-11T12:51:44.236Z,99716.38
2023-01-11T12:54:32.691Z,99714.47
2023-01-11T12:57:13.171Z,99711.72
2023-01-11T13:00:01.828Z,99709.81
2023-01-11T13:02:48.517Z,99720.16
2023-01-11T13:05:25.892Z,99710.94
2023-01-11T13:08:05.393Z,99686.56
2023-01-11T13:10:48.422Z,99697.03
2023-01-11T13:13:21.517Z,99710.41
2023-01-11T13:15:56.767Z,99703.78
2023-01-11T13:18:34.579Z,99705.28
2023-01-11T13:21:12.349Z,99703.81
2023-01-11T13:23:45.563Z,99704.03
2023-01-11T13:26:24.891Z,99720.16
2023-01-11T13:28:59.049Z,99700.38
2023-01-11T13:31:27.863Z,99708.94
2023-01-11T13:34:02.266Z,99704.59
2023-01-11T13:36:36.824Z,99687.91
2023-01-11T13:39:12.958Z,99689.50
2023-01-11T13:41:47.510Z,99702.59
2023-01-11T13:44:22.396Z,99715.81
2023-01-11T13:47:00.965Z,99719.03
2023-01-11T13:49:51.210Z,99709.72
2023-01-11T13:52:22.405Z,99717.44
2023-01-11T13:54:59.342Z,99724.09
2023-01-11T13:57:37.516Z,99718.00
2023-01-11T14:00:16.316Z,99726.72
2023-01-11T14:02:50.752Z,99724.31
2023-01-11T14:05:21.380Z,99728.59
2023-01-11T14:08:03.822Z,99732.50
2023-01-11T14:10:46.245Z,99726.28
2023-01-11T14:13:50.926Z,99739.44
2023-01-11T14:16:27.437Z,99734.38
2023-01-11T14:19:04.773Z,99724.94
2023-01-11T14:21:39.275Z,99737.81
2023-01-11T14:24:10.117Z,99729.03
2023-01-11T14:27:11.453Z,99729.25
2023-01-11T14:30:14.171Z,99736.22
2023-01-11T14:33:03.295Z,99735.88
2023-01-11T14:35:47.124Z,99729.47
2023-01-11T14:38:37.120Z,99733.25
2023-01-11T14:41:32.105Z,99756.84
2023-01-11T14:44:14.477Z,99756.97
2023-01-11T14:47:14.519Z,99754.28
2023-01-11T14:50:03.416Z,99755.50
2023-01-11T14:52:40.110Z,99744.84
2023-01-11T14:55:17.380Z,99753.47
2023-01-11T14:58:00.306Z,99753.41
2023-01-11T15:01:11.276Z,99764.09
2023-01-11T15:03:50.517Z,99764.38
2023-01-11T15:06:21.472Z,99780.16
2023-01-11T15:08:52.216Z,99778.34
2023-01-11T15:11:35.839Z,99786.78
2023-01-11T15:14:08.426Z,99784.78
2023-01-11T15:16:56.865Z,99794.13
2023-01-11T15:19:30.445Z,99783.78
2023-01-11T15:22:01.676Z,99786.69
2023-01-11T15:24:31.855Z,99792.63
2023-01-11T15:27:01.875Z,99794.38
2023-01-11T15:29:32.400Z,99787.09
2023-01-11T15:32:20.348Z,99799.69
2023-01-11T15:34:50.238Z,99796.22
2023-01-11T15:37:37.743Z,99786.84
2023-01-11T15:40:15.143Z,99789.59
2023-01-11T15:43:14.302Z,99802.47
2023-01-11T15:46:27.460Z,99806.88
2023-01-11T15:49:34.035Z,99813.47
2023-01-11T15:52:26.671Z,99813.06
2023-01-11T15:55:24.512Z,99800.03
2023-01-11T15:58:19.746Z,99815.38
2023-01-11T16:01:04.562Z,99827.78
2023-01-11T16:03:54.285Z,99827.06
2023-01-11T16:06:33.954Z,99820.50
2023-01-11T16:09:23.079Z,99820.94
2023-01-11T16:12:06.363Z,99820.19
2023-01-11T16:14:57.215Z,99825.25
2023-01-11T16:17:26.788Z,99828.41
2023-01-11T16:19:57.066Z,99826.91
2023-01-11T16:22:28.622Z,99815.38
2023-01-11T16:25:01.536Z,99827.31
2023-01-11T16:27:33.109Z,99831.94
2023-01-11T16:30:01.668Z,99826.69
2023-01-11T16:32:32.888Z,99833.75
2023-01-11T16:35:02.161Z,99827.78
2023-01-11T16:37:34.454Z,99831.47
2023-01-11T16:40:09.577Z,99829.38
2023-01-11T16:42:43.390Z,99835.91
2023-01-11T16:45:15.912Z,99839.44
2023-01-11T16:47:43.714Z,99837.66
2023-01-11T16:50:20.001Z,99839.94
2023-01-11T16:52:50.321Z,99829.00
2023-01-11T16:55:29.717Z,99828.53
2023-01-11T16:58:01.211Z,99839.31
2023-01-11T17:00:38.008Z,99841.78
2023-01-11T17:03:18.491Z,99835.81
2023-01-11T17:05:55.599Z,99852.50
2023-01-11T17:08:29.682Z,99838.63
2023-01-11T17:11:02.295Z,99849.94
2023-01-11T17:13:56.063Z,99834.06
2023-01-11T17:16:28.603Z,99843.13
2023-01-11T17:18:59.551Z,99844.91
2023-01-11T17:21:30.091Z,99846.34
2023-01-11T17:24:01.314Z,99845.94
2023-01-11T17:26:36.384Z,99846.75
2023-01-11T17:29:05.796Z,99853.38
2023-01-11T17:31:36.904Z,99847.72
2023-01-11T17:34:08.626Z,99839.72
2023-01-11T17:36:37.591Z,99854.19
2023-01-11T17:39:06.817Z,99854.44
2023-01-11T17:41:54.473Z,99849.94
2023-01-11T17:44:42.179Z,99838.22
2023-01-11T17:47:13.381Z,99820.53
2023-01-11T17:49:41.471Z,99822.84
2023-01-11T17:52:11.799Z,99825.00
2023-01-11T17:54:39.686Z,99841.63
2023-01-11T17:57:10.724Z,99844.00
2023-01-11T17:59:38.469Z,99842.72
2023-01-11T18:02:13.675Z,99846.75
2023-01-11T18:04:42.171Z,99823.25
2023-01-11T18:07:16.770Z,99845.13
2023-01-11T18:09:46.977Z,99856.34
2023-01-11T18:12:19.606Z,99855.09
2023-01-11T18:14:52.093Z,99855.84
2023-01-11T18:17:36.098Z,99838.78
2023-01-11T18:20:25.235Z,99831.00
2023-01-11T18:22:59.805Z,99830.00
2023-01-11T18:25:29.026Z,99849.13
2023-01-11T18:28:26.478Z,99858.72
2023-01-11T18:30:57.728Z,99865.97
2023-01-11T18:33:27.853Z,99868.63
2023-01-11T18:35:58.712Z,99861.94
2023-01-11T18:38:29.231Z,99868.59
2023-01-11T18:40:59.228Z,99863.84
2023-01-11T18:43:30.756Z,99867.28
2023-01-11T18:45:58.631Z,99863.78
2023-01-11T18:48:26.416Z,99862.63
2023-01-11T18:50:54.703Z,99850.97
2023-01-11T18:53:23.721Z,99871.34
2023-01-11T18:55:51.542Z,99863.50
2023-01-11T18:58:19.450Z,99859.50
2023-01-11T19:00:48.621Z,99858.47
2023-01-11T19:03:16.424Z,99861.09
2023-01-11T19:05:44.496Z,99854.03
2023-01-11T19:08:12.270Z,99856.94
2023-01-11T19:10:40.013Z,99852.91
2023-01-11T19:13:08.026Z,99863.50
2023-01-11T19:15:36.061Z,99862.38
2023-01-11T19:18:05.431Z,99865.53
2023-01-11T19:20:33.405Z,99871.88
2023-01-11T19:23:01.253Z,99868.84
2023-01-11T19:25:29.083Z,99867.19
2023-01-11T19:27:56.880Z,99871.47
2023-01-11T19:30:24.700Z,99868.41
2023-01-11T19:32:54.406Z,99846.31
2023-01-11T19:35:24.059Z,99861.22
2023-01-11T19:37:52.502Z,99861.28
2023-01-11T19:40:21.368Z,99860.50
2023-01-11T19:42:52.483Z,99862.91
2023-01-11T19:45:20.590Z,99867.97
2023-01-11T19:47:48.350Z,99872.41
2023-01-11T19:50:17.733Z,99872.41
2023-01-11T19:52:47.166Z,99874.44
2023-01-11T19:55:14.915Z,99872.38
2023-01-11T19:57:42.707Z,99869.63
2023-01-11T20:00:14.245Z,99870.97
2023-01-11T20:02:42.336Z,99863.88
2023-01-11T20:05:10.728Z,99874.75
2023-01-11T20:07:38.645Z,99878.44
2023-01-11T20:10:08.279Z,99879.38
2023-01-11T20:12:36.131Z,99877.38
2023-01-11T20:15:04.341Z,99879.47
2023-01-11T20:17:33.032Z,99873.53
2023-01-11T20:20:00.861Z,99883.47
2023-01-11T20:22:28.863Z,99884.44
2023-01-11T20:24:57.032Z,99882.66
2023-01-11T20:27:26.345Z,99887.94
2023-01-11T20:29:54.320Z,99896.94
2023-01-11T20:32:40.444Z,99902.25
2023-01-11T20:35:10.752Z,99909.38
2023-01-11T20:37:38.549Z,99909.16
2023-01-11T20:40:07.330Z,99893.13
2023-01-11T20:42:36.753Z,99910.84
2023-01-11T20:45:05.007Z,99907.38
2023-01-11T20:47:32.839Z,99910.50
2023-01-11T20:50:00.914Z,99910.50
2023-01-11T20:52:28.717Z,99904.56
2023-01-11T20:54:56.409Z,99904.78
2023-01-11T20:57:24.395Z,99908.78
2023-01-11T20:59:54.535Z,99904.88
2023-01-11T21:02:22.311Z,99877.28
2023-01-11T21:04:50.221Z,99892.81
2023-01-11T21:07:17.984Z,99877.81
2023-01-11T21:09:45.804Z,99899.91
2023-01-11T21:12:13.781Z,99887.84
2023-01-11T21:14:41.514Z,99901.00
2023-01-11T21:17:10.754Z,99898.47
2023-01-11T21:19:38.618Z,99891.38
2023-01-11T21:22:06.397Z,99905.41
2023-01-11T21:24:34.202Z,99907.38
2023-01-11T21:27:02.130Z,99902.91
2023-01-11T21:29:29.955Z,99907.94
2023-01-11T21:31:57.791Z,99916.59
2023-01-11T21:34:26.985Z,99908.75
2023-01-11T21:36:54.759Z,99914.19
2023-01-11T21:39:22.587Z,99915.56
2023-01-11T21:41:57.656Z,99918.88
2023-01-11T21:44:30.709Z,99907.81
2023-01-11T21:46:59.293Z,99917.28
2023-01-11T21:49:28.474Z,99914.25
2023-01-11T21:51:56.238Z,99923.69
2023-01-11T21:54:24.334Z,99924.16
2023-01-11T21:56:52.599Z,99921.50
2023-01-11T21:59:21.425Z,99918.06
2023-01-11T22:01:49.966Z,99902.91
2023-01-11T22:04:20.443Z,99909.91
2023-01-11T22:06:54.472Z,99919.72
2023-01-11T22:09:23.388Z,99909.00
2023-01-11T22:11:51.214Z,99909.78
2023-01-11T22:14:19.041Z,99911.19
2023-01-11T22:16:47.093Z,99912.50
2023-01-11T22:19:15.506Z,99906.66
2023-01-11T22:21:43.746Z,99901.38
2023-01-11T22:24:13.275Z,99904.13
2023-01-11T22:26:41.582Z,99898.25
2023-01-11T22:29:15.154Z,99898.41
2023-01-11T22:31:45.966Z,99873.50
2023-01-11T22:34:14.790Z,99890.00
2023-01-11T22:36:43.340Z,99897.00
2023-01-11T22:39:13.308Z,99889.47
2023-01-11T22:41:41.245Z,99915.03
2023-01-11T22:44:09.512Z,99908.22
2023-01-11T22:46:37.519Z,99907.03
2023-01-11T22:49:06.118Z,99917.50
2023-01-11T22:51:34.658Z,99918.94
2023-01-11T22:54:02.483Z,99915.13
2023-01-11T22:56:31.796Z,99906.44
2023-01-11T22:59:00.113Z,99909.38
2023-01-11T23:01:29.833Z,99925.63
2023-01-11T23:03:58.692Z,99930.53
2023-01-11T23:06:28.443Z,99930.69
2023-01-11T23:08:56.786Z,99930.59
2023-01-11T23:11:45.786Z,99930.59
2023-01-11T23:14:16.676Z,99922.06
2023-01-11T23:16:44.915Z,99925.00
2023-01-11T23:19:14.270Z,99927.47
2023-01-11T23:21:42.654Z,99930.06
2023-01-11T23:24:11.864Z,99921.69
2023-01-11T23:26:40.465Z,99921.31
2023-01-11T23:29:08.618Z,99909.34
2023-01-11T23:31:38.766Z,99900.44
2023-01-11T23:34:08.628Z,99904.72
2023-01-11T23:36:38.735Z,99909.06
2023-01-11T23:39:07.385Z,99909.28
2023-01-11T23:41:52.982Z,99898.28
2023-01-11T23:44:22.695Z,99893.03
2023-01-11T23:47:09.908Z,99900.78
2023-01-11T23:49:37.972Z,99890.81
2023-01-11T23:52:06.453Z,99879.19
2023-01-11T23:54:34.986Z,99880.75
2023-01-11T23:57:03.885Z,99876.13
2023-01-11T23:59:32.038Z,99878.44
